sensor_id;sensor_type;location;lat;lon;timestamp;pressure;altitude;pressure_sealevel;temperature
12061;BMP180;6091;51.432;6.880;2023-03-16T00:01:06;101161.00;;;23.40
12061;BMP180;6091;51.432;6.880;2023-03-16T00:03:33;101160.00;;;23.40
12061;BMP180;6091;51.432;6.880;2023-03-16T00:06:05;101154.00;;;23.30
12061;BMP180;6091;51.432;6.880;2023-03-16T00:08:32;101146.00;;;23.30
12061;BMP180;6091;51.432;6.880;2023-03-16T00:11:01;101144.00;;;23.30
12061;BMP180;6091;51.432;6.880;2023-03-16T00:13:30;101139.00;;;23.30
12061;BMP180;6091;51.432;6.880;2023-03-16T00:16:01;101134.00;;;23.30
12061;BMP180;6091;51.432;6.880;2023-03-16T00:18:33;101145.00;;;23.30
12061;BMP180;6091;51.432;6.880;2023-03-16T00:21:05;101141.00;;;23.30
12061;BMP180;6091;51.432;6.880;2023-03-16T00:23:33;101140.00;;;23.30
12061;BMP180;6091;51.432;6.880;2023-03-16T00:26:06;101142.00;;;23.30
12061;BMP180;6091;51.432;6.880;2023-03-16T00:28:35;101139.00;;;23.20
12061;BMP180;6091;51.432;6.880;2023-03-16T00:31:09;101141.00;;;23.20
12061;BMP180;6091;51.432;6.880;2023-03-16T00:33:41;101148.00;;;23.20
12061;BMP180;6091;51.432;6.880;2023-03-16T00:36:14;101144.00;;;23.20
12061;BMP180;6091;51.432;6.880;2023-03-16T00:38:42;101142.00;;;23.20
12061;BMP180;6091;51.432;6.880;2023-03-16T00:41:15;101134.00;;;23.20
12061;BMP180;6091;51.432;6.880;2023-03-16T00:43:45;101132.00;;;23.20
12061;BMP180;6091;51.432;6.880;2023-03-16T00:46:15;101131.00;;;23.20
12061;BMP180;6091;51.432;6.880;2023-03-16T00:48:45;101133.00;;;23.10
12061;BMP180;6091;51.432;6.880;2023-03-16T00:51:17;101128.00;;;23.10
12061;BMP180;6091;51.432;6.880;2023-03-16T00:53:46;101130.00;;;22.90
12061;BMP180;6091;51.432;6.880;2023-03-16T00:56:16;101134.00;;;23.10
12061;BMP180;6091;51.432;6.880;2023-03-16T00:58:43;101129.00;;;23.10
12061;BMP180;6091;51.432;6.880;2023-03-16T01:01:18;101141.00;;;23.10
12061;BMP180;6091;51.432;6.880;2023-03-16T01:03:46;101140.00;;;23.10
12061;BMP180;6091;51.432;6.880;2023-03-16T01:06:16;101127.00;;;23.10
12061;BMP180;6091;51.432;6.880;2023-03-16T01:08:47;101126.00;;;23.10
12061;BMP180;6091;51.432;6.880;2023-03-16T01:11:20;101113.00;;;23.00
12061;BMP180;6091;51.432;6.880;2023-03-16T01:13:49;101112.00;;;23.00
12061;BMP180;6091;51.432;6.880;2023-03-16T01:16:20;101108.00;;;23.00
12061;BMP180;6091;51.432;6.880;2023-03-16T01:18:51;101106.00;;;23.00
12061;BMP180;6091;51.432;6.880;2023-03-16T01:21:22;101103.00;;;23.00
12061;BMP180;6091;51.432;6.880;2023-03-16T01:23:49;101100.00;;;23.00
12061;BMP180;6091;51.432;6.880;2023-03-16T01:26:16;101103.00;;;23.00
12061;BMP180;6091;51.432;6.880;2023-03-16T01:28:44;101101.00;;;23.00
12061;BMP180;6091;51.432;6.880;2023-03-16T01:31:14;101085.00;;;23.00
12061;BMP180;6091;51.432;6.880;2023-03-16T01:33:42;101083.00;;;23.00
12061;BMP180;6091;51.432;6.880;2023-03-16T01:36:14;101086.00;;;23.00
12061;BMP180;6091;51.432;6.880;2023-03-16T01:38:42;101083.00;;;23.00
12061;BMP180;6091;51.432;6.880;2023-03-16T01:41:12;101071.00;;;23.00
12061;BMP180;6091;51.432;6.880;2023-03-16T01:43:41;101071.00;;;23.00
12061;BMP180;6091;51.432;6.880;2023-03-16T01:46:23;101064.00;;;22.90
12061;BMP180;6091;51.432;6.880;2023-03-16T01:49:07;101063.00;;;22.90
12061;BMP180;6091;51.432;6.880;2023-03-16T01:51:47;101060.00;;;22.90
12061;BMP180;6091;51.432;6.880;2023-03-16T01:54:27;101056.00;;;22.90
12061;BMP180;6091;51.432;6.880;2023-03-16T01:57:19;101046.00;;;22.90
12061;BMP180;6091;51.432;6.880;2023-03-16T02:00:11;101040.00;;;22.90
12061;BMP180;6091;51.432;6.880;2023-03-16T02:02:55;101042.00;;;22.90
12061;BMP180;6091;51.432;6.880;2023-03-16T02:05:48;101048.00;;;22.80
12061;BMP180;6091;51.432;6.880;2023-03-16T02:08:17;101038.00;;;22.90
12061;BMP180;6091;51.432;6.880;2023-03-16T02:10:45;101035.00;;;22.90
12061;BMP180;6091;51.432;6.880;2023-03-16T02:13:12;101036.00;;;22.80
12061;BMP180;6091;51.432;6.880;2023-03-16T02:15:39;101038.00;;;22.80
12061;BMP180;6091;51.432;6.880;2023-03-16T02:18:08;101035.00;;;22.90
12061;BMP180;6091;51.432;6.880;2023-03-16T02:20:42;101026.00;;;22.80
12061;BMP180;6091;51.432;6.880;2023-03-16T02:23:18;101028.00;;;22.80
12061;BMP180;6091;51.432;6.880;2023-03-16T02:26:02;101024.00;;;22.80
12061;BMP180;6091;51.432;6.880;2023-03-16T02:29:13;101027.00;;;22.80
12061;BMP180;6091;51.432;6.880;2023-03-16T02:31:43;101018.00;;;22.80
12061;BMP180;6091;51.432;6.880;2023-03-16T02:34:14;101008.00;;;22.80
12061;BMP180;6091;51.432;6.880;2023-03-16T02:36:45;101006.00;;;22.80
12061;BMP180;6091;51.432;6.880;2023-03-16T02:39:13;101012.00;;;22.80
12061;BMP180;6091;51.432;6.880;2023-03-16T02:41:41;101011.00;;;22.80
12061;BMP180;6091;51.432;6.880;2023-03-16T02:44:14;101010.00;;;22.80
12061;BMP180;6091;51.432;6.880;2023-03-16T02:46:45;101013.00;;;22.80
12061;BMP180;6091;51.432;6.880;2023-03-16T02:49:33;100995.00;;;22.80
12061;BMP180;6091;51.432;6.880;2023-03-16T02:52:05;100985.00;;;22.80
12061;BMP180;6091;51.432;6.880;2023-03-16T02:54:33;100975.00;;;22.80
12061;BMP180;6091;51.432;6.880;2023-03-16T02:57:01;100980.00;;;22.70
12061;BMP180;6091;51.432;6.880;2023-03-16T02:59:28;100978.00;;;22.70
12061;BMP180;6091;51.432;6.880;2023-03-16T03:01:55;100990.00;;;22.70
12061;BMP180;6091;51.432;6.880;2023-03-16T03:04:23;100987.00;;;22.70
12061;BMP180;6091;51.432;6.880;2023-03-16T03:06:51;100978.00;;;22.70
12061;BMP180;6091;51.432;6.880;2023-03-16T03:09:18;100985.00;;;22.70
12061;BMP180;6091;51.432;6.880;2023-03-16T03:11:46;100982.00;;;22.70
12061;BMP180;6091;51.432;6.880;2023-03-16T03:14:14;100988.00;;;22.70
12061;BMP180;6091;51.432;6.880;2023-03-16T03:16:43;100987.00;;;22.70
12061;BMP180;6091;51.432;6.880;2023-03-16T03:19:13;100974.00;;;22.70
12061;BMP180;6091;51.432;6.880;2023-03-16T03:21:40;100982.00;;;22.70
12061;BMP180;6091;51.432;6.880;2023-03-16T03:24:08;100970.00;;;22.70
12061;BMP180;6091;51.432;6.880;2023-03-16T03:26:36;100966.00;;;22.70
12061;BMP180;6091;51.432;6.880;2023-03-16T03:29:07;100977.00;;;22.70
12061;BMP180;6091;51.432;6.880;2023-03-16T03:31:34;100970.00;;;22.70
12061;BMP180;6091;51.432;6.880;2023-03-16T03:34:02;100978.00;;;22.60
12061;BMP180;6091;51.432;6.880;2023-03-16T03:36:33;100967.00;;;22.70
12061;BMP180;6091;51.432;6.880;2023-03-16T03:39:00;100955.00;;;22.60
12061;BMP180;6091;51.432;6.880;2023-03-16T03:41:32;100959.00;;;22.60
12061;BMP180;6091;51.432;6.880;2023-03-16T03:44:00;100953.00;;;22.60
12061;BMP180;6091;51.432;6.880;2023-03-16T03:46:30;100952.00;;;22.60
12061;BMP180;6091;51.432;6.880;2023-03-16T03:48:57;100960.00;;;22.60
12061;BMP180;6091;51.432;6.880;2023-03-16T03:51:32;100970.00;;;22.60
12061;BMP180;6091;51.432;6.880;2023-03-16T03:54:03;100958.00;;;22.60
12061;BMP180;6091;51.432;6.880;2023-03-16T03:56:31;100961.00;;;22.60
12061;BMP180;6091;51.432;6.880;2023-03-16T03:58:58;100962.00;;;22.60
12061;BMP180;6091;51.432;6.880;2023-03-16T04:01:25;100970.00;;;22.60
12061;BMP180;6091;51.432;6.880;2023-03-16T04:03:52;100962.00;;;22.60
12061;BMP180;6091;51.432;6.880;2023-03-16T04:06:19;100953.00;;;22.50
12061;BMP180;6091;51.432;6.880;2023-03-16T04:08:49;100946.00;;;22.50
12061;BMP180;6091;51.432;6.880;2023-03-16T04:11:17;100941.00;;;22.50
12061;BMP180;6091;51.432;6.880;2023-03-16T04:13:44;100951.00;;;22.50
12061;BMP180;6091;51.432;6.880;2023-03-16T04:16:13;100946.00;;;22.50
12061;BMP180;6091;51.432;6.880;2023-03-16T04:18:42;100945.00;;;22.50
12061;BMP180;6091;51.432;6.880;2023-03-16T04:21:17;100944.00;;;22.50
12061;BMP180;6091;51.432;6.880;2023-03-16T04:23:44;100934.00;;;22.50
12061;BMP180;6091;51.432;6.880;2023-03-16T04:26:12;100934.00;;;22.50
12061;BMP180;6091;51.432;6.880;2023-03-16T04:28:42;100934.00;;;22.50
12061;BMP180;6091;51.432;6.880;2023-03-16T04:31:10;100924.00;;;22.50
12061;BMP180;6091;51.432;6.880;2023-03-16T04:33:38;100918.00;;;22.50
12061;BMP180;6091;51.432;6.880;2023-03-16T04:36:07;100916.00;;;22.50
12061;BMP180;6091;51.432;6.880;2023-03-16T04:38:35;100923.00;;;22.50
12061;BMP180;6091;51.432;6.880;2023-03-16T04:41:05;100920.00;;;22.50
12061;BMP180;6091;51.432;6.880;2023-03-16T04:43:33;100910.00;;;22.50
12061;BMP180;6091;51.432;6.880;2023-03-16T04:46:02;100913.00;;;22.40
12061;BMP180;6091;51.432;6.880;2023-03-16T04:48:30;100909.00;;;22.40
12061;BMP180;6091;51.432;6.880;2023-03-16T04:51:02;100914.00;;;22.40
12061;BMP180;6091;51.432;6.880;2023-03-16T04:53:30;100918.00;;;22.40
12061;BMP180;6091;51.432;6.880;2023-03-16T04:55:58;100904.00;;;22.20
12061;BMP180;6091;51.432;6.880;2023-03-16T04:58:26;100911.00;;;22.40
12061;BMP180;6091;51.432;6.880;2023-03-16T05:00:54;100921.00;;;22.40
12061;BMP180;6091;51.432;6.880;2023-03-16T05:03:21;100923.00;;;22.40
12061;BMP180;6091;51.432;6.880;2023-03-16T05:05:49;100921.00;;;22.40
12061;BMP180;6091;51.432;6.880;2023-03-16T05:08:17;100920.00;;;22.40
12061;BMP180;6091;51.432;6.880;2023-03-16T05:10:44;100922.00;;;22.40
12061;BMP180;6091;51.432;6.880;2023-03-16T05:13:13;100915.00;;;22.40
12061;BMP180;6091;51.432;6.880;2023-03-16T05:15:40;100909.00;;;22.40
12061;BMP180;6091;51.432;6.880;2023-03-16T05:18:08;100906.00;;;22.30
12061;BMP180;6091;51.432;6.880;2023-03-16T05:20:35;100908.00;;;22.40
12061;BMP180;6091;51.432;6.880;2023-03-16T05:23:02;100912.00;;;22.40
12061;BMP180;6091;51.432;6.880;2023-03-16T05:25:33;100901.00;;;22.40
12061;BMP180;6091;51.432;6.880;2023-03-16T05:28:00;100910.00;;;22.40
12061;BMP180;6091;51.432;6.880;2023-03-16T05:30:33;100905.00;;;22.40
12061;BMP180;6091;51.432;6.880;2023-03-16T05:33:00;100900.00;;;22.30
12061;BMP180;6091;51.432;6.880;2023-03-16T05:35:28;100908.00;;;22.30
12061;BMP180;6091;51.432;6.880;2023-03-16T05:37:55;100901.00;;;22.30
12061;BMP180;6091;51.432;6.880;2023-03-16T05:40:22;100907.00;;;22.30
12061;BMP180;6091;51.432;6.880;2023-03-16T05:42:55;100910.00;;;22.40
12061;BMP180;6091;51.432;6.880;2023-03-16T05:45:23;100906.00;;;22.30
12061;BMP180;6091;51.432;6.880;2023-03-16T05:47:53;100922.00;;;22.30
12061;BMP180;6091;51.432;6.880;2023-03-16T05:50:21;100917.00;;;22.30
12061;BMP180;6091;51.432;6.880;2023-03-16T05:52:48;100919.00;;;22.30
12061;BMP180;6091;51.432;6.880;2023-03-16T05:55:18;100915.00;;;22.30
12061;BMP180;6091;51.432;6.880;2023-03-16T05:57:48;100915.00;;;22.30
12061;BMP180;6091;51.432;6.880;2023-03-16T06:00:17;100915.00;;;22.30
12061;BMP180;6091;51.432;6.880;2023-03-16T06:02:48;100910.00;;;22.30
12061;BMP180;6091;51.432;6.880;2023-03-16T06:05:20;100896.00;;;22.30
12061;BMP180;6091;51.432;6.880;2023-03-16T06:07:49;100911.00;;;22.30
12061;BMP180;6091;51.432;6.880;2023-03-16T06:10:18;100920.00;;;22.30
12061;BMP180;6091;51.432;6.880;2023-03-16T06:12:46;100918.00;;;22.30
12061;BMP180;6091;51.432;6.880;2023-03-16T06:15:14;100917.00;;;22.30
12061;BMP180;6091;51.432;6.880;2023-03-16T06:17:41;100924.00;;;22.30
12061;BMP180;6091;51.432;6.880;2023-03-16T06:20:11;100919.00;;;22.30
12061;BMP180;6091;51.432;6.880;2023-03-16T06:22:42;100919.00;;;22.20
12061;BMP180;6091;51.432;6.880;2023-03-16T06:25:12;100918.00;;;22.30
12061;BMP180;6091;51.432;6.880;2023-03-16T06:27:40;100918.00;;;22.30
12061;BMP180;6091;51.432;6.880;2023-03-16T06:30:12;100925.00;;;22.30
12061;BMP180;6091;51.432;6.880;2023-03-16T06:32:40;100916.00;;;22.30
12061;BMP180;6091;51.432;6.880;2023-03-16T06:35:09;100922.00;;;22.30
12061;BMP180;6091;51.432;6.880;2023-03-16T06:37:36;100918.00;;;22.10
12061;BMP180;6091;51.432;6.880;2023-03-16T06:40:05;100915.00;;;22.40
12061;BMP180;6091;51.432;6.880;2023-03-16T06:42:32;100923.00;;;22.40
12061;BMP180;6091;51.432;6.880;2023-03-16T06:44:59;100933.00;;;22.60
12061;BMP180;6091;51.432;6.880;2023-03-16T06:47:27;100931.00;;;22.70
12061;BMP180;6091;51.432;6.880;2023-03-16T06:49:55;100925.00;;;22.80
12061;BMP180;6091;51.432;6.880;2023-03-16T06:52:25;100925.00;;;23.00
12061;BMP180;6091;51.432;6.880;2023-03-16T06:54:52;100920.00;;;23.10
12061;BMP180;6091;51.432;6.880;2023-03-16T06:57:19;100924.00;;;23.30
12061;BMP180;6091;51.432;6.880;2023-03-16T06:59:47;100925.00;;;23.50
12061;BMP180;6091;51.432;6.880;2023-03-16T07:02:14;100923.00;;;23.60
12061;BMP180;6091;51.432;6.880;2023-03-16T07:04:43;100915.00;;;23.70
12061;BMP180;6091;51.432;6.880;2023-03-16T07:07:11;100930.00;;;23.90
12061;BMP180;6091;51.432;6.880;2023-03-16T07:09:38;100938.00;;;24.00
12061;BMP180;6091;51.432;6.880;2023-03-16T07:12:08;100946.00;;;24.20
12061;BMP180;6091;51.432;6.880;2023-03-16T07:14:36;100947.00;;;24.30
12061;BMP180;6091;51.432;6.880;2023-03-16T07:17:03;100951.00;;;24.50
12061;BMP180;6091;51.432;6.880;2023-03-16T07:19:31;100938.00;;;24.60
12061;BMP180;6091;51.432;6.880;2023-03-16T07:22:01;100935.00;;;24.70
12061;BMP180;6091;51.432;6.880;2023-03-16T07:24:29;100951.00;;;24.90
12061;BMP180;6091;51.432;6.880;2023-03-16T07:26:57;100943.00;;;25.00
12061;BMP180;6091;51.432;6.880;2023-03-16T07:29:24;100956.00;;;25.10
12061;BMP180;6091;51.432;6.880;2023-03-16T07:31:52;100939.00;;;25.20
12061;BMP180;6091;51.432;6.880;2023-03-16T07:34:20;100953.00;;;25.30
12061;BMP180;6091;51.432;6.880;2023-03-16T07:36:48;100960.00;;;25.40
12061;BMP180;6091;51.432;6.880;2023-03-16T07:39:15;100960.00;;;25.50
12061;BMP180;6091;51.432;6.880;2023-03-16T07:41:44;100960.00;;;25.60
12061;BMP180;6091;51.432;6.880;2023-03-16T07:44:12;100955.00;;;25.70
12061;BMP180;6091;51.432;6.880;2023-03-16T07:46:41;100959.00;;;25.70
12061;BMP180;6091;51.432;6.880;2023-03-16T07:49:09;100957.00;;;25.80
12061;BMP180;6091;51.432;6.880;2023-03-16T07:51:38;100958.00;;;26.00
12061;BMP180;6091;51.432;6.880;2023-03-16T07:54:06;100950.00;;;26.00
12061;BMP180;6091;51.432;6.880;2023-03-16T07:56:34;100953.00;;;26.00
12061;BMP180;6091;51.432;6.880;2023-03-16T07:59:15;100944.00;;;26.10
12061;BMP180;6091;51.432;6.880;2023-03-16T08:01:45;100961.00;;;26.10
12061;BMP180;6091;51.432;6.880;2023-03-16T08:04:15;100955.00;;;26.20
12061;BMP180;6091;51.432;6.880;2023-03-16T08:06:42;100948.00;;;26.20
12061;BMP180;6091;51.432;6.880;2023-03-16T08:09:14;100949.00;;;26.20
12061;BMP180;6091;51.432;6.880;2023-03-16T08:11:44;100945.00;;;26.30
12061;BMP180;6091;51.432;6.880;2023-03-16T08:14:12;100954.00;;;26.30
12061;BMP180;6091;51.432;6.880;2023-03-16T08:16:39;100949.00;;;26.30
12061;BMP180;6091;51.432;6.880;2023-03-16T08:19:07;100951.00;;;26.30
12061;BMP180;6091;51.432;6.880;2023-03-16T08:21:34;100954.00;;;26.40
12061;BMP180;6091;51.432;6.880;2023-03-16T08:24:22;100959.00;;;26.40
12061;BMP180;6091;51.432;6.880;2023-03-16T08:26:50;100957.00;;;26.40
12061;BMP180;6091;51.432;6.880;2023-03-16T08:29:17;100957.00;;;26.40
12061;BMP180;6091;51.432;6.880;2023-03-16T08:31:45;100953.00;;;26.40
12061;BMP180;6091;51.432;6.880;2023-03-16T08:34:13;100946.00;;;26.40
12061;BMP180;6091;51.432;6.880;2023-03-16T08:36:42;100944.00;;;26.40
12061;BMP180;6091;51.432;6.880;2023-03-16T08:39:10;100945.00;;;26.40
12061;BMP180;6091;51.432;6.880;2023-03-16T08:41:38;100949.00;;;26.40
12061;BMP180;6091;51.432;6.880;2023-03-16T08:44:06;100951.00;;;26.40
12061;BMP180;6091;51.432;6.880;2023-03-16T08:46:34;100938.00;;;26.40
12061;BMP180;6091;51.432;6.880;2023-03-16T08:49:01;100949.00;;;26.40
12061;BMP180;6091;51.432;6.880;2023-03-16T08:51:29;100945.00;;;26.40
12061;BMP180;6091;51.432;6.880;2023-03-16T08:54:00;100949.00;;;26.50
12061;BMP180;6091;51.432;6.880;2023-03-16T08:56:27;100948.00;;;26.50
12061;BMP180;6091;51.432;6.880;2023-03-16T08:58:56;100952.00;;;26.40
12061;BMP180;6091;51.432;6.880;2023-03-16T09:01:24;100957.00;;;26.50
12061;BMP180;6091;51.432;6.880;2023-03-16T09:03:53;100958.00;;;26.50
12061;BMP180;6091;51.432;6.880;2023-03-16T09:06:20;100948.00;;;26.50
12061;BMP180;6091;51.432;6.880;2023-03-16T09:08:51;100944.00;;;26.50
12061;BMP180;6091;51.432;6.880;2023-03-16T09:11:20;100956.00;;;26.50
12061;BMP180;6091;51.432;6.880;2023-03-16T09:13:48;100955.00;;;26.70
12061;BMP180;6091;51.432;6.880;2023-03-16T09:16:19;100951.00;;;26.60
12061;BMP180;6091;51.432;6.880;2023-03-16T09:18:52;100948.00;;;26.60
12061;BMP180;6091;51.432;6.880;2023-03-16T09:21:20;100954.00;;;26.70
12061;BMP180;6091;51.432;6.880;2023-03-16T09:23:48;100950.00;;;26.90
12061;BMP180;6091;51.432;6.880;2023-03-16T09:26:16;100949.00;;;26.80
12061;BMP180;6091;51.432;6.880;2023-03-16T09:28:43;100952.00;;;26.80
12061;BMP180;6091;51.432;6.880;2023-03-16T09:31:17;100963.00;;;26.80
12061;BMP180;6091;51.432;6.880;2023-03-16T09:33:46;100964.00;;;26.80
12061;BMP180;6091;51.432;6.880;2023-03-16T09:36:16;100931.00;;;26.80
12061;BMP180;6091;51.432;6.880;2023-03-16T09:38:44;100936.00;;;26.80
12061;BMP180;6091;51.432;6.880;2023-03-16T09:44:28;100936.00;;;26.80
12061;BMP180;6091;51.432;6.880;2023-03-16T09:47:00;100930.00;;;26.80
12061;BMP180;6091;51.432;6.880;2023-03-16T09:49:45;100926.00;;;26.90
12061;BMP180;6091;51.432;6.880;2023-03-16T09:52:39;100932.00;;;26.90
12061;BMP180;6091;51.432;6.880;2023-03-16T09:55:34;100923.00;;;26.90
12061;BMP180;6091;51.432;6.880;2023-03-16T09:58:16;100915.00;;;26.90
12061;BMP180;6091;51.432;6.880;2023-03-16T10:04:04;100923.00;;;27.00
12061;BMP180;6091;51.432;6.880;2023-03-16T10:16:02;100897.00;;;27.10
12061;BMP180;6091;51.432;6.880;2023-03-16T10:18:42;100897.00;;;27.10
12061;BMP180;6091;51.432;6.880;2023-03-16T10:21:14;100899.00;;;27.10
12061;BMP180;6091;51.432;6.880;2023-03-16T10:23:45;100885.00;;;27.00
12061;BMP180;6091;51.432;6.880;2023-03-16T10:26:20;100883.00;;;27.10
12061;BMP180;6091;51.432;6.880;2023-03-16T10:28:50;100898.00;;;27.10
12061;BMP180;6091;51.432;6.880;2023-03-16T10:31:21;100902.00;;;27.10
12061;BMP180;6091;51.432;6.880;2023-03-16T10:33:55;100889.00;;;27.10
12061;BMP180;6091;51.432;6.880;2023-03-16T10:36:32;100894.00;;;27.10
12061;BMP180;6091;51.432;6.880;2023-03-16T10:39:17;100892.00;;;27.10
12061;BMP180;6091;51.432;6.880;2023-03-16T10:41:55;100886.00;;;27.10
12061;BMP180;6091;51.432;6.880;2023-03-16T10:44:26;100885.00;;;27.10
12061;BMP180;6091;51.432;6.880;2023-03-16T10:47:03;100867.00;;;27.40
12061;BMP180;6091;51.432;6.880;2023-03-16T10:49:43;100869.00;;;27.20
12061;BMP180;6091;51.432;6.880;2023-03-16T10:52:47;100847.00;;;27.20
12061;BMP180;6091;51.432;6.880;2023-03-16T10:55:39;100854.00;;;27.50
12061;BMP180;6091;51.432;6.880;2023-03-16T10:58:09;100856.00;;;27.40
12061;BMP180;6091;51.432;6.880;2023-03-16T11:00:42;100852.00;;;27.40
12061;BMP180;6091;51.432;6.880;2023-03-16T11:03:24;100858.00;;;27.40
12061;BMP180;6091;51.432;6.880;2023-03-16T11:06:02;100846.00;;;27.40
12061;BMP180;6091;51.432;6.880;2023-03-16T11:08:39;100835.00;;;27.40
12061;BMP180;6091;51.432;6.880;2023-03-16T11:11:13;100839.00;;;27.40
12061;BMP180;6091;51.432;6.880;2023-03-16T11:13:47;100835.00;;;27.50
12061;BMP180;6091;51.432;6.880;2023-03-16T11:16:27;100839.00;;;27.50
12061;BMP180;6091;51.432;6.880;2023-03-16T11:19:20;100834.00;;;27.50
12061;BMP180;6091;51.432;6.880;2023-03-16T11:21:58;100843.00;;;27.70
12061;BMP180;6091;51.432;6.880;2023-03-16T11:27:46;100834.00;;;27.90
12061;BMP180;6091;51.432;6.880;2023-03-16T11:33:30;100814.00;;;28.00
12061;BMP180;6091;51.432;6.880;2023-03-16T11:45:12;100804.00;;;28.70
12061;BMP180;6091;51.432;6.880;2023-03-16T11:53:57;100786.00;;;29.40
12061;BMP180;6091;51.432;6.880;2023-03-16T11:56:48;100778.00;;;29.50
12061;BMP180;6091;51.432;6.880;2023-03-16T12:09:02;100777.00;;;30.10
12061;BMP180;6091;51.432;6.880;2023-03-16T12:14:31;100763.00;;;30.10
12061;BMP180;6091;51.432;6.880;2023-03-16T12:17:15;100748.00;;;30.10
12061;BMP180;6091;51.432;6.880;2023-03-16T12:22:52;100733.00;;;29.90
12061;BMP180;6091;51.432;6.880;2023-03-16T12:25:46;100736.00;;;29.70
12061;BMP180;6091;51.432;6.880;2023-03-16T12:28:22;100733.00;;;29.60
12061;BMP180;6091;51.432;6.880;2023-03-16T12:31:22;100725.00;;;29.50
12061;BMP180;6091;51.432;6.880;2023-03-16T12:40:25;100718.00;;;29.10
12061;BMP180;6091;51.432;6.880;2023-03-16T12:43:54;100705.00;;;29.00
12061;BMP180;6091;51.432;6.880;2023-03-16T12:46:43;100708.00;;;28.90
12061;BMP180;6091;51.432;6.880;2023-03-16T12:49:14;100697.00;;;28.80
12061;BMP180;6091;51.432;6.880;2023-03-16T12:51:43;100693.00;;;28.60
12061;BMP180;6091;51.432;6.880;2023-03-16T12:54:22;100681.00;;;28.80
12061;BMP180;6091;51.432;6.880;2023-03-16T12:56:53;100679.00;;;28.70
12061;BMP180;6091;51.432;6.880;2023-03-16T12:59:38;100684.00;;;28.60
12061;BMP180;6091;51.432;6.880;2023-03-16T13:02:29;100682.00;;;28.60
12061;BMP180;6091;51.432;6.880;2023-03-16T13:05:13;100670.00;;;28.50
12061;BMP180;6091;51.432;6.880;2023-03-16T13:07:50;100671.00;;;28.50
12061;BMP180;6091;51.432;6.880;2023-03-16T13:10:19;100655.00;;;28.50
12061;BMP180;6091;51.432;6.880;2023-03-16T13:12:47;100667.00;;;28.40
12061;BMP180;6091;51.432;6.880;2023-03-16T13:21:00;100642.00;;;28.50
12061;BMP180;6091;51.432;6.880;2023-03-16T13:26:41;100646.00;;;28.80
12061;BMP180;6091;51.432;6.880;2023-03-16T13:29:25;100628.00;;;28.90
12061;BMP180;6091;51.432;6.880;2023-03-16T13:31:59;100643.00;;;29.00
12061;BMP180;6091;51.432;6.880;2023-03-16T13:34:32;100640.00;;;29.10
12061;BMP180;6091;51.432;6.880;2023-03-16T13:37:02;100636.00;;;29.20
12061;BMP180;6091;51.432;6.880;2023-03-16T13:39:32;100627.00;;;29.30
12061;BMP180;6091;51.432;6.880;2023-03-16T13:42:17;100627.00;;;29.30
12061;BMP180;6091;51.432;6.880;2023-03-16T13:44:45;100635.00;;;29.40
12061;BMP180;6091;51.432;6.880;2023-03-16T13:47:19;100630.00;;;29.40
12061;BMP180;6091;51.432;6.880;2023-03-16T13:49:56;100625.00;;;29.40
12061;BMP180;6091;51.432;6.880;2023-03-16T13:52:33;100613.00;;;29.30
12061;BMP180;6091;51.432;6.880;2023-03-16T13:55:15;100617.00;;;29.30
12061;BMP180;6091;51.432;6.880;2023-03-16T13:57:46;100604.00;;;29.30
12061;BMP180;6091;51.432;6.880;2023-03-16T14:00:24;100598.00;;;29.30
12061;BMP180;6091;51.432;6.880;2023-03-16T14:02:55;100581.00;;;29.30
12061;BMP180;6091;51.432;6.880;2023-03-16T14:05:31;100590.00;;;29.30
12061;BMP180;6091;51.432;6.880;2023-03-16T14:08:00;100577.00;;;29.20
12061;BMP180;6091;51.432;6.880;2023-03-16T14:10:35;100578.00;;;29.20
12061;BMP180;6091;51.432;6.880;2023-03-16T14:13:29;100577.00;;;29.20
12061;BMP180;6091;51.432;6.880;2023-03-16T14:16:16;100574.00;;;29.10
12061;BMP180;6091;51.432;6.880;2023-03-16T14:18:50;100571.00;;;29.10
12061;BMP180;6091;51.432;6.880;2023-03-16T14:21:25;100556.00;;;29.10
12061;BMP180;6091;51.432;6.880;2023-03-16T14:23:59;100539.00;;;29.10
12061;BMP180;6091;51.432;6.880;2023-03-16T14:26:43;100536.00;;;29.10
12061;BMP180;6091;51.432;6.880;2023-03-16T14:29:40;100533.00;;;29.10
12061;BMP180;6091;51.432;6.880;2023-03-16T14:32:30;100531.00;;;29.20
12061;BMP180;6091;51.432;6.880;2023-03-16T14:35:15;100531.00;;;29.20
12061;BMP180;6091;51.432;6.880;2023-03-16T14:37:43;100540.00;;;29.30
12061;BMP180;6091;51.432;6.880;2023-03-16T14:40:31;100535.00;;;29.40
12061;BMP180;6091;51.432;6.880;2023-03-16T14:43:03;100530.00;;;29.50
12061;BMP180;6091;51.432;6.880;2023-03-16T14:45:37;100525.00;;;29.60
12061;BMP180;6091;51.432;6.880;2023-03-16T14:48:14;100513.00;;;29.70
12061;BMP180;6091;51.432;6.880;2023-03-16T14:50:53;100522.00;;;29.70
12061;BMP180;6091;51.432;6.880;2023-03-16T14:53:23;100521.00;;;29.80
12061;BMP180;6091;51.432;6.880;2023-03-16T14:55:55;100509.00;;;29.80
12061;BMP180;6091;51.432;6.880;2023-03-16T14:58:23;100506.00;;;29.90
12061;BMP180;6091;51.432;6.880;2023-03-16T15:00:52;100498.00;;;29.90
12061;BMP180;6091;51.432;6.880;2023-03-16T15:03:30;100499.00;;;29.90
12061;BMP180;6091;51.432;6.880;2023-03-16T15:06:00;100499.00;;;29.90
12061;BMP180;6091;51.432;6.880;2023-03-16T15:08:32;100498.00;;;29.90
12061;BMP180;6091;51.432;6.880;2023-03-16T15:11:05;100489.00;;;29.90
12061;BMP180;6091;51.432;6.880;2023-03-16T15:13:33;100484.00;;;29.90
12061;BMP180;6091;51.432;6.880;2023-03-16T15:16:23;100488.00;;;29.90
12061;BMP180;6091;51.432;6.880;2023-03-16T15:18:52;100488.00;;;29.90
12061;BMP180;6091;51.432;6.880;2023-03-16T15:21:27;100486.00;;;29.80
12061;BMP180;6091;51.432;6.880;2023-03-16T15:23:57;100492.00;;;29.70
12061;BMP180;6091;51.432;6.880;2023-03-16T15:26:27;100480.00;;;29.60
12061;BMP180;6091;51.432;6.880;2023-03-16T15:28:56;100493.00;;;29.60
12061;BMP180;6091;51.432;6.880;2023-03-16T15:31:24;100487.00;;;29.50
12061;BMP180;6091;51.432;6.880;2023-03-16T15:33:52;100478.00;;;29.40
12061;BMP180;6091;51.432;6.880;2023-03-16T15:36:21;100477.00;;;29.30
12061;BMP180;6091;51.432;6.880;2023-03-16T15:38:54;100475.00;;;29.30
12061;BMP180;6091;51.432;6.880;2023-03-16T15:41:22;100471.00;;;29.20
12061;BMP180;6091;51.432;6.880;2023-03-16T15:43:51;100462.00;;;29.20
12061;BMP180;6091;51.432;6.880;2023-03-16T15:46:18;100455.00;;;29.10